Time;durP1;ratioP1;P1;durP2;ratioP2;P2;SDS_P1;SDS_P2;PMS_P1;PMS_P2;Temp;Humidity;BMP_temperature;BMP_pressure;BME280_temperature;BME280_humidity;BME280_pressure;Samples;Min_cycle;Max_cycle;Signal;HPM_P1;HPM_P2
2023/03/30 00:01:20;;;;;;;3.67;1.25;;;16.10;98.40;;;;;;4916714;29;20039;-74
2023/03/30 00:03:47;;;;;;;10.25;1.70;;;16.10;98.40;;;;;;4917440;29;20024;-74
2023/03/30 00:06:21;;;;;;;7.05;1.52;;;16.10;98.40;;;;;;4916915;29;20032;-79
2023/03/30 00:08:52;;;;;;;6.63;1.77;;;16.10;98.50;;;;;;4917321;29;20071;-74
2023/03/30 00:11:21;;;;;;;8.63;1.63;;;16.10;98.40;;;;;;4916635;29;20037;-74
2023/03/30 00:13:49;;;;;;;3.25;1.30;;;16.10;98.50;;;;;;4917439;29;20032;-76
2023/03/30 00:16:16;;;;;;;4.85;1.30;;;16.10;98.60;;;;;;4916753;29;20384;-76
2023/03/30 00:18:43;;;;;;;10.05;1.60;;;16.00;98.70;;;;;;4916782;29;20060;-75
2023/03/30 00:21:10;;;;;;;6.28;1.45;;;16.10;98.60;;;;;;4918602;29;20043;-75
2023/03/30 00:23:37;;;;;;;11.10;2.15;;;16.10;98.80;;;;;;4916427;29;20075;-75
2023/03/30 00:26:03;;;;;;;6.03;2.03;;;16.10;98.90;;;;;;4918310;29;20027;-75
2023/03/30 00:28:29;;;;;;;5.93;1.40;;;16.00;99.10;;;;;;4916224;29;20516;-75
2023/03/30 00:30:55;;;;;;;11.70;1.92;;;16.10;99.20;;;;;;4916918;29;20028;-75
2023/03/30 00:33:21;;;;;;;5.80;1.40;;;16.00;99.50;;;;;;4931943;29;20099;-74
2023/03/30 00:35:54;;;;;;;6.97;1.42;;;16.00;99.60;;;;;;4917710;29;20454;-73
2023/03/30 00:38:20;;;;;;;6.80;1.40;;;16.00;99.60;;;;;;4932108;29;20611;-74
2023/03/30 00:40:58;;;;;;;8.73;1.73;;;16.10;99.70;;;;;;4916559;29;20024;-73
2023/03/30 00:43:24;;;;;;;9.13;1.70;;;16.10;99.90;;;;;;4915943;29;20064;-74
2023/03/30 00:45:50;;;;;;;9.55;2.10;;;16.00;99.80;;;;;;4916500;29;20029;-73
2023/03/30 00:48:31;;;;;;;7.47;1.20;;;16.00;99.90;;;;;;4931814;29;20490;-74
2023/03/30 00:51:09;;;;;;;5.57;1.58;;;16.00;99.90;;;;;;4917328;29;20024;-74
2023/03/30 00:53:39;;;;;;;7.28;1.58;;;16.00;99.90;;;;;;4916307;29;20028;-74
2023/03/30 00:56:07;;;;;;;10.52;1.88;;;15.90;99.90;;;;;;4916687;29;20055;-73
2023/03/30 00:58:35;;;;;;;9.52;1.60;;;15.90;99.90;;;;;;4916152;29;20039;-74
2023/03/30 01:01:04;;;;;;;5.93;1.70;;;15.90;99.90;;;;;;4932620;29;20086;-74
2023/03/30 01:03:37;;;;;;;8.35;1.60;;;15.90;99.90;;;;;;4931930;29;20082;-74
2023/03/30 01:06:06;;;;;;;8.48;1.77;;;15.90;99.90;;;;;;4917748;29;20111;-73
2023/03/30 01:08:32;;;;;;;7.43;1.33;;;15.90;99.90;;;;;;4915936;29;20040;-74
2023/03/30 01:11:02;;;;;;;7.55;1.45;;;15.90;99.90;;;;;;4932414;29;20047;-74
2023/03/30 01:13:31;;;;;;;8.18;1.85;;;15.90;99.90;;;;;;4915933;29;20512;-74
2023/03/30 01:16:17;;;;;;;7.32;1.67;;;15.90;99.90;;;;;;4916260;29;20478;-74
2023/03/30 01:19:02;;;;;;;6.93;1.65;;;15.90;99.90;;;;;;4916134;29;20139;-74
2023/03/30 01:22:00;;;;;;;7.30;1.73;;;15.80;99.90;;;;;;4915796;29;20028;-74
2023/03/30 01:24:34;;;;;;;9.27;1.48;;;15.80;99.90;;;;;;4915839;29;20024;-74
2023/03/30 01:27:18;;;;;;;9.10;1.80;;;15.80;99.90;;;;;;4916220;29;20039;-74
2023/03/30 01:30:02;;;;;;;7.88;1.67;;;15.80;99.90;;;;;;4917569;29;20028;-74
2023/03/30 01:32:57;;;;;;;9.70;2.08;;;15.90;99.90;;;;;;4915371;29;20039;-74
2023/03/30 01:35:57;;;;;;;5.28;1.40;;;15.80;99.90;;;;;;4915033;29;20032;-74
2023/03/30 01:39:00;;;;;;;6.28;1.50;;;15.80;99.90;;;;;;4865689;29;20614;-74
2023/03/30 01:41:28;;;;;;;;;;;15.90;99.90;;;;;;4915460;29;20036;-74
2023/03/30 01:44:00;;;;;;;7.68;1.60;;;15.80;99.90;;;;;;4915604;29;19907;-74
2023/03/30 01:46:36;;;;;;;9.98;1.58;;;15.80;99.90;;;;;;4914978;29;20040;-74
2023/03/30 01:49:14;;;;;;;9.45;1.90;;;15.90;99.90;;;;;;4915830;29;20095;-73
2023/03/30 01:51:57;;;;;;;6.10;1.70;;;15.90;99.90;;;;;;4916085;29;20024;-74
2023/03/30 01:54:30;;;;;;;9.23;2.40;;;15.90;99.90;;;;;;4915120;29;20035;-74
2023/03/30 01:57:11;;;;;;;7.43;1.52;;;15.90;99.90;;;;;;4931787;29;20036;-74
2023/03/30 01:59:48;;;;;;;6.07;1.52;;;16.00;99.90;;;;;;4916507;29;20032;-74
2023/03/30 02:02:16;;;;;;;12.18;2.03;;;16.10;99.90;;;;;;4916487;29;20039;-74
2023/03/30 02:04:44;;;;;;;13.00;2.10;;;16.00;99.90;;;;;;4916584;29;20024;-74
2023/03/30 02:07:21;;;;;;;12.02;2.10;;;16.10;99.90;;;;;;4916553;29;20028;-73
2023/03/30 02:09:49;;;;;;;7.35;1.60;;;16.10;99.90;;;;;;4916743;29;20055;-74
2023/03/30 02:12:17;;;;;;;10.07;1.88;;;16.10;99.90;;;;;;4915631;29;20035;-74
2023/03/30 02:14:43;;;;;;;8.05;1.92;;;16.00;99.90;;;;;;4915035;29;20032;-74
2023/03/30 02:17:13;;;;;;;10.20;2.03;;;15.90;99.90;;;;;;4916798;29;20040;-74
2023/03/30 02:19:41;;;;;;;10.97;1.90;;;15.80;99.90;;;;;;4930680;29;20040;-74
2023/03/30 02:22:07;;;;;;;13.18;1.60;;;15.70;99.90;;;;;;4915212;29;20462;-74
2023/03/30 02:24:34;;;;;;;13.70;1.98;;;15.60;99.90;;;;;;4930747;29;20032;-74
2023/03/30 02:27:01;;;;;;;8.07;1.95;;;15.60;99.90;;;;;;4915351;29;20461;-74
2023/03/30 02:29:27;;;;;;;9.63;1.83;;;15.50;99.90;;;;;;4930780;29;20040;-74
2023/03/30 02:31:56;;;;;;;12.90;1.52;;;15.50;99.90;;;;;;4915351;29;20029;-74
2023/03/30 02:34:50;;;;;;;7.90;1.58;;;15.40;99.90;;;;;;4914832;29;20032;-78
2023/03/30 02:37:21;;;;;;;11.50;2.30;;;15.40;99.90;;;;;;4916149;29;20466;-74
2023/03/30 02:40:11;;;;;;;11.63;1.50;;;15.40;99.90;;;;;;4916061;29;20414;-74
2023/03/30 02:42:42;;;;;;;12.23;1.88;;;15.30;99.90;;;;;;4914888;29;20470;-74
2023/03/30 02:45:21;;;;;;;16.40;2.50;;;15.30;99.90;;;;;;4915380;29;20389;-74
2023/03/30 02:48:15;;;;;;;5.38;1.58;;;15.30;99.90;;;;;;4930587;29;20398;-74
2023/03/30 02:50:48;;;;;;;13.25;2.22;;;15.30;99.90;;;;;;4915754;29;20032;-74
2023/03/30 02:53:35;;;;;;;12.27;1.95;;;15.30;99.90;;;;;;4915179;29;20043;-74
2023/03/30 02:56:24;;;;;;;9.50;2.60;;;15.30;99.90;;;;;;4915308;29;20466;-73
2023/03/30 02:58:54;;;;;;;9.20;1.58;;;15.30;99.90;;;;;;4916749;29;20036;-74
2023/03/30 03:01:46;;;;;;;12.32;1.90;;;15.20;99.90;;;;;;4916362;29;20028;-77
2023/03/30 03:04:14;;;;;;;8.20;1.60;;;15.20;99.90;;;;;;4914128;29;20095;-74
2023/03/30 03:06:41;;;;;;;6.80;1.60;;;15.30;99.90;;;;;;4914607;29;20151;-74
2023/03/30 03:09:08;;;;;;;7.10;1.70;;;15.20;99.90;;;;;;4916093;29;20075;-74
2023/03/30 03:11:34;;;;;;;11.30;2.35;;;15.20;99.90;;;;;;4914549;29;20033;-74
2023/03/30 03:14:00;;;;;;;11.52;2.70;;;15.20;99.90;;;;;;4917027;29;20035;-74
2023/03/30 03:16:25;;;;;;;8.68;2.17;;;15.20;99.90;;;;;;4919428;29;20028;-74
2023/03/30 03:18:51;;;;;;;9.48;2.00;;;15.20;99.90;;;;;;4918077;29;20378;-74
2023/03/30 03:21:17;;;;;;;10.95;2.42;;;15.20;99.90;;;;;;4934044;29;20381;-74
2023/03/30 03:23:43;;;;;;;11.05;2.55;;;15.20;99.90;;;;;;4917674;29;20103;-74
2023/03/30 03:26:10;;;;;;;11.27;2.50;;;15.20;99.90;;;;;;4918214;29;20032;-74
2023/03/30 03:28:36;;;;;;;13.35;2.55;;;15.10;99.90;;;;;;4917587;29;20040;-74
2023/03/30 03:31:02;;;;;;;16.65;2.55;;;15.10;99.90;;;;;;4919467;29;20086;-74
2023/03/30 03:33:30;;;;;;;12.68;4.75;;;15.00;99.90;;;;;;4918979;29;20028;-75
2023/03/30 03:35:58;;;;;;;17.73;4.38;;;14.90;99.90;;;;;;4919529;29;20020;-74
2023/03/30 03:38:25;;;;;;;17.30;6.20;;;14.90;99.90;;;;;;4917948;29;20060;-78
2023/03/30 03:40:53;;;;;;;17.52;5.88;;;14.90;99.90;;;;;;4918098;29;20032;-74
2023/03/30 03:43:18;;;;;;;17.75;5.70;;;14.80;99.90;;;;;;4934046;29;20043;-74
2023/03/30 03:45:49;;;;;;;19.15;4.78;;;14.80;99.90;;;;;;4917560;29;20153;-74
2023/03/30 03:48:16;;;;;;;22.85;4.35;;;14.80;99.90;;;;;;4933744;29;20051;-74
2023/03/30 03:50:43;;;;;;;12.38;4.47;;;14.80;99.90;;;;;;4918860;29;20070;-74
2023/03/30 03:53:10;;;;;;;11.70;4.05;;;14.80;99.90;;;;;;4917631;29;20088;-74
2023/03/30 03:55:35;;;;;;;13.45;3.67;;;14.80;99.90;;;;;;4916919;29;20036;-74
2023/03/30 03:58:03;;;;;;;13.10;3.78;;;14.70;99.90;;;;;;4918712;29;20036;-74
2023/03/30 04:00:29;;;;;;;14.23;3.60;;;14.70;99.90;;;;;;4916515;29;20059;-74
2023/03/30 04:02:55;;;;;;;14.50;3.47;;;14.70;99.90;;;;;;4933023;29;20071;-74
2023/03/30 04:05:20;;;;;;;15.38;3.45;;;14.60;99.90;;;;;;4917683;29;20040;-74
2023/03/30 04:07:46;;;;;;;12.65;3.17;;;14.60;99.90;;;;;;4932601;29;20565;-74
2023/03/30 04:10:12;;;;;;;11.52;3.08;;;14.60;99.90;;;;;;4918820;29;20035;-73
2023/03/30 04:12:38;;;;;;;12.52;2.97;;;14.50;99.90;;;;;;4918384;29;20036;-74
2023/03/30 04:15:05;;;;;;;15.40;3.53;;;14.40;99.90;;;;;;4917380;29;20473;-74
2023/03/30 04:17:34;;;;;;;8.57;2.90;;;14.50;99.90;;;;;;4916793;29;20064;-74
2023/03/30 04:20:04;;;;;;;15.90;3.40;;;14.50;99.90;;;;;;4918674;29;20021;-73
2023/03/30 04:22:40;;;;;;;14.07;3.20;;;14.50;99.90;;;;;;4917050;29;20035;-73
2023/03/30 04:25:08;;;;;;;19.83;3.08;;;14.50;99.90;;;;;;4916741;29;20032;-73
2023/03/30 04:27:36;;;;;;;15.93;3.10;;;14.50;99.90;;;;;;4917779;29;20032;-73
2023/03/30 04:30:05;;;;;;;14.23;4.10;;;14.50;99.90;;;;;;4917248;29;20032;-73
2023/03/30 04:32:33;;;;;;;14.50;2.90;;;14.50;99.90;;;;;;4917822;29;20043;-73
2023/03/30 04:35:00;;;;;;;16.35;3.50;;;14.40;99.90;;;;;;4916975;29;20115;-73
2023/03/30 04:37:29;;;;;;;12.15;3.45;;;14.40;99.90;;;;;;4932648;29;20039;-79
2023/03/30 04:39:57;;;;;;;11.55;3.17;;;14.50;99.90;;;;;;4917987;29;20028;-73
2023/03/30 04:42:29;;;;;;;9.05;2.90;;;14.40;99.90;;;;;;4916636;29;20123;-73
2023/03/30 04:44:57;;;;;;;15.60;3.38;;;14.40;99.90;;;;;;4917832;29;20029;-73
2023/03/30 04:47:27;;;;;;;13.55;3.63;;;14.40;99.90;;;;;;4917570;29;20056;-73
2023/03/30 04:49:53;;;;;;;17.85;2.83;;;14.40;99.90;;;;;;4932099;29;20118;-72
2023/03/30 04:52:19;;;;;;;13.85;3.65;;;14.30;99.90;;;;;;4917660;29;20111;-73
2023/03/30 04:54:45;;;;;;;11.35;3.33;;;14.30;99.90;;;;;;4915720;29;20361;-73
2023/03/30 04:57:12;;;;;;;10.88;2.60;;;14.20;99.90;;;;;;4916420;29;20513;-73
2023/03/30 04:59:39;;;;;;;12.70;2.70;;;14.10;99.90;;;;;;4916022;29;20028;-73
2023/03/30 05:02:04;;;;;;;16.08;3.15;;;14.10;99.90;;;;;;4916654;29;20035;-73
2023/03/30 05:04:30;;;;;;;14.75;2.97;;;14.10;99.90;;;;;;4931914;29;20032;-78
2023/03/30 05:06:56;;;;;;;7.63;2.20;;;14.10;99.90;;;;;;4917859;29;20398;-73
2023/03/30 05:09:22;;;;;;;10.30;2.40;;;14.10;99.90;;;;;;4916184;29;20040;-73
2023/03/30 05:11:48;;;;;;;8.90;2.28;;;14.00;99.90;;;;;;4915791;29;20028;-73
2023/03/30 05:14:14;;;;;;;12.35;3.25;;;14.00;99.90;;;;;;4917878;29;20039;-73
2023/03/30 05:16:40;;;;;;;8.73;2.75;;;14.00;99.90;;;;;;4931721;29;20038;-73
2023/03/30 05:19:06;;;;;;;14.60;3.50;;;13.90;99.90;;;;;;4917768;29;20044;-73
2023/03/30 05:21:31;;;;;;;12.40;3.25;;;13.90;99.90;;;;;;4917108;29;20024;-79
2023/03/30 05:23:57;;;;;;;15.05;2.47;;;13.90;99.90;;;;;;4917823;29;20024;-73
2023/03/30 05:26:22;;;;;;;10.45;2.60;;;13.90;99.90;;;;;;4916178;29;20092;-73
2023/03/30 05:28:49;;;;;;;10.85;2.53;;;13.90;99.90;;;;;;4916879;29;20630;-73
2023/03/30 05:31:16;;;;;;;10.82;2.40;;;14.00;99.90;;;;;;4931995;29;20024;-73
2023/03/30 05:33:41;;;;;;;15.07;2.55;;;14.00;99.90;;;;;;4916855;29;20038;-74
2023/03/30 05:36:08;;;;;;;9.30;3.00;;;14.10;99.90;;;;;;4931850;29;20028;-74
2023/03/30 05:38:34;;;;;;;9.80;2.58;;;14.10;99.90;;;;;;4916840;29;20040;-74
2023/03/30 05:41:00;;;;;;;13.98;3.33;;;14.10;99.90;;;;;;4915624;29;20030;-73
2023/03/30 05:43:26;;;;;;;9.52;2.63;;;14.10;99.90;;;;;;4916002;29;20111;-74
2023/03/30 05:45:52;;;;;;;16.50;2.53;;;14.10;99.90;;;;;;4915163;29;20020;-73
2023/03/30 05:48:17;;;;;;;9.82;2.53;;;14.10;99.90;;;;;;4931332;29;20044;-73
2023/03/30 05:50:43;;;;;;;11.15;2.22;;;14.10;99.90;;;;;;4915216;29;20036;-74
2023/03/30 05:53:09;;;;;;;10.30;2.50;;;14.10;99.90;;;;;;4915583;29;20028;-74
2023/03/30 05:55:34;;;;;;;9.48;2.38;;;14.00;99.90;;;;;;4930759;29;20042;-76
2023/03/30 05:58:00;;;;;;;13.45;3.58;;;13.90;99.90;;;;;;4916589;29;20405;-73
2023/03/30 06:00:27;;;;;;;14.85;2.88;;;14.00;99.90;;;;;;4916457;29;20024;-73
2023/03/30 06:02:53;;;;;;;11.90;3.35;;;14.00;99.90;;;;;;4930381;29;20560;-73
2023/03/30 06:05:18;;;;;;;12.85;3.70;;;14.00;99.90;;;;;;4915454;29;20118;-73
2023/03/30 06:07:44;;;;;;;11.10;2.80;;;14.00;99.90;;;;;;4930223;29;20087;-73
2023/03/30 06:10:11;;;;;;;9.68;2.92;;;14.00;99.90;;;;;;4914952;29;20059;-73
2023/03/30 06:12:38;;;;;;;12.65;2.85;;;14.00;99.90;;;;;;4914481;29;20035;-74
2023/03/30 06:15:07;;;;;;;9.10;2.40;;;13.90;99.90;;;;;;4915111;29;20028;-74
2023/03/30 06:17:33;;;;;;;10.45;2.28;;;13.90;99.90;;;;;;4914508;29;20474;-79
2023/03/30 06:19:59;;;;;;;10.98;2.25;;;13.90;99.90;;;;;;4930716;29;20032;-74
2023/03/30 06:22:25;;;;;;;10.05;2.60;;;13.90;99.90;;;;;;4930853;29;20035;-74
2023/03/30 06:24:51;;;;;;;13.55;3.13;;;13.90;99.90;;;;;;4915708;29;20035;-74
2023/03/30 06:27:17;;;;;;;13.65;3.17;;;13.80;99.90;;;;;;4916293;29;20032;-74
2023/03/30 06:29:42;;;;;;;10.65;2.50;;;13.80;99.90;;;;;;4914443;29;20024;-74
2023/03/30 06:32:08;;;;;;;13.82;3.28;;;13.70;99.90;;;;;;4915079;29;20028;-74
2023/03/30 06:34:33;;;;;;;13.05;2.88;;;13.70;99.90;;;;;;4914994;29;20249;-78
2023/03/30 06:37:00;;;;;;;9.20;2.45;;;13.70;99.90;;;;;;4930942;29;20024;-74
2023/03/30 06:39:25;;;;;;;10.77;2.85;;;13.60;99.90;;;;;;4915112;29;20127;-74
2023/03/30 06:41:51;;;;;;;9.02;2.60;;;13.60;99.90;;;;;;4914672;29;20172;-74
2023/03/30 06:44:17;;;;;;;10.38;2.53;;;13.60;99.90;;;;;;4931104;29;20024;-74
2023/03/30 06:46:42;;;;;;;7.40;2.53;;;13.60;99.90;;;;;;4915539;29;20470;-74
2023/03/30 06:49:10;;;;;;;6.53;2.22;;;13.60;99.90;;;;;;4917781;29;20032;-74
2023/03/30 06:51:36;;;;;;;10.95;2.60;;;13.60;99.90;;;;;;4919978;29;20024;-76
2023/03/30 06:54:02;;;;;;;4.78;2.20;;;13.70;99.90;;;;;;4920587;29;20355;-74
2023/03/30 06:56:28;;;;;;;9.88;3.03;;;13.60;99.90;;;;;;4934891;29;20036;-73
2023/03/30 06:58:55;;;;;;;13.18;2.83;;;13.60;99.90;;;;;;4918558;29;20312;-74
2023/03/30 07:01:21;;;;;;;11.45;2.90;;;13.50;99.90;;;;;;4919760;29;20353;-73
2023/03/30 07:03:47;;;;;;;13.45;2.58;;;13.40;99.90;;;;;;4915438;29;20036;-73
2023/03/30 07:06:12;;;;;;;12.30;2.83;;;13.40;99.90;;;;;;4926587;29;20032;-74
2023/03/30 07:08:39;;;;;;;8.93;2.97;;;13.40;99.90;;;;;;4919346;29;20040;-76
2023/03/30 07:11:05;;;;;;;12.05;2.85;;;13.40;99.90;;;;;;4915771;29;20039;-74
2023/03/30 07:13:32;;;;;;;10.77;3.35;;;13.30;99.90;;;;;;4918507;29;20087;-73
2023/03/30 07:15:57;;;;;;;11.00;2.92;;;13.30;99.90;;;;;;4918168;29;20055;-74
2023/03/30 07:18:24;;;;;;;10.73;2.42;;;13.30;99.90;;;;;;4917947;29;20084;-74
2023/03/30 07:20:50;;;;;;;7.70;2.53;;;13.20;99.90;;;;;;4933703;29;20032;-74
2023/03/30 07:23:16;;;;;;;12.80;3.72;;;13.20;99.90;;;;;;4919530;29;20032;-73
2023/03/30 07:25:43;;;;;;;11.45;2.70;;;13.20;99.90;;;;;;4919035;29;20472;-74
2023/03/30 07:28:09;;;;;;;12.88;2.95;;;13.30;99.90;;;;;;4918188;29;20047;-74
2023/03/30 07:30:35;;;;;;;11.98;2.83;;;13.20;99.90;;;;;;4933949;29;20381;-74
2023/03/30 07:33:01;;;;;;;14.13;3.08;;;13.20;99.90;;;;;;4917757;29;20039;-74
2023/03/30 07:35:27;;;;;;;8.38;2.42;;;13.20;99.90;;;;;;4934231;29;20024;-74
2023/03/30 07:37:53;;;;;;;11.20;2.95;;;13.20;99.90;;;;;;4918872;29;20028;-73
2023/03/30 07:40:20;;;;;;;10.45;2.85;;;13.20;99.90;;;;;;4933830;29;20080;-73
2023/03/30 07:42:46;;;;;;;9.75;3.08;;;13.20;99.90;;;;;;4917513;29;20040;-74
2023/03/30 07:45:12;;;;;;;8.50;3.00;;;13.20;99.90;;;;;;4918039;29;20115;-73
2023/03/30 07:47:38;;;;;;;13.20;3.20;;;13.10;99.90;;;;;;4917301;29;20107;-77
2023/03/30 07:50:05;;;;;;;10.80;2.88;;;13.10;99.90;;;;;;4933041;29;20028;-74
2023/03/30 07:52:31;;;;;;;12.02;3.05;;;13.10;99.90;;;;;;4898705;29;20025;-74
2023/03/30 07:54:57;;;;;;;12.40;3.13;;;13.10;99.90;;;;;;4899492;29;20127;-73
2023/03/30 07:57:24;;;;;;;10.95;2.85;;;13.10;99.90;;;;;;4900295;29;20380;-74
2023/03/30 07:59:50;;;;;;;8.30;2.58;;;13.10;99.90;;;;;;4896953;29;20024;-74
2023/03/30 08:02:16;;;;;;;8.25;2.55;;;13.10;99.90;;;;;;4917293;29;20115;-74
2023/03/30 08:04:43;;;;;;;13.02;3.00;;;13.10;99.90;;;;;;4916949;29;20025;-75
2023/03/30 08:07:10;;;;;;;8.07;2.33;;;13.10;99.90;;;;;;4918992;29;20087;-74
2023/03/30 08:09:36;;;;;;;8.40;2.72;;;13.20;99.90;;;;;;4918727;29;20028;-74
2023/03/30 08:12:02;;;;;;;8.55;2.80;;;13.20;99.90;;;;;;4916618;29;20048;-74
2023/03/30 08:14:27;;;;;;;10.55;2.63;;;13.20;99.90;;;;;;4918693;29;20517;-74
2023/03/30 08:16:54;;;;;;;12.15;3.50;;;13.20;99.90;;;;;;4916998;29;20032;-74
2023/03/30 08:19:21;;;;;;;5.78;2.22;;;13.20;99.90;;;;;;4918290;29;20494;-73
2023/03/30 08:21:46;;;;;;;9.10;3.00;;;13.40;99.90;;;;;;4932042;29;20434;-73
2023/03/30 08:24:12;;;;;;;10.57;2.67;;;13.40;99.90;;;;;;4918513;29;20059;-73
2023/03/30 08:26:38;;;;;;;6.95;2.30;;;13.50;99.90;;;;;;4918501;29;20526;-73
2023/03/30 08:29:03;;;;;;;9.52;2.83;;;13.60;99.90;;;;;;4932644;29;20521;-74
2023/03/30 08:31:31;;;;;;;12.15;2.40;;;13.60;99.90;;;;;;4932448;29;20024;-74
2023/03/30 08:34:02;;;;;;;7.25;2.15;;;13.70;99.90;;;;;;4916732;29;20032;-74
2023/03/30 08:36:27;;;;;;;8.18;2.53;;;13.70;99.90;;;;;;4933272;29;20050;-74
2023/03/30 08:38:53;;;;;;;9.25;2.22;;;13.70;99.90;;;;;;4917871;29;20469;-74
2023/03/30 08:41:28;;;;;;;7.35;2.75;;;13.60;99.90;;;;;;4907011;29;20029;-73
2023/03/30 08:44:01;;;;;;;9.93;2.15;;;13.60;99.90;;;;;;4898676;29;20467;-73
2023/03/30 08:46:28;;;;;;;7.75;2.45;;;13.60;99.90;;;;;;4913493;29;20028;-74
2023/03/30 08:48:58;;;;;;;7.55;2.05;;;13.60;99.90;;;;;;4909969;29;20044;-72
2023/03/30 08:51:27;;;;;;;9.82;2.35;;;13.70;99.90;;;;;;4917854;29;20071;-76
2023/03/30 08:54:04;;;;;;;8.35;2.17;;;13.80;99.90;;;;;;4912643;29;20494;-73
2023/03/30 08:56:45;;;;;;;6.25;2.10;;;13.80;99.90;;;;;;4913617;29;20031;-73
2023/03/30 08:59:36;;;;;;;6.93;1.85;;;14.00;99.90;;;;;;4916574;29;20032;-73
2023/03/30 09:02:08;;;;;;;4.65;1.98;;;14.10;99.90;;;;;;4918033;29;20031;-74
2023/03/30 09:05:07;;;;;;;3.75;1.95;;;14.10;99.90;;;;;;4916716;29;20114;-74
2023/03/30 09:07:46;;;;;;;5.45;1.88;;;14.20;99.90;;;;;;4930777;29;20067;-74
2023/03/30 09:10:14;;;;;;;8.50;2.00;;;14.30;99.90;;;;;;4909805;29;20032;-74
2023/03/30 09:12:57;;;;;;;5.38;1.90;;;14.30;99.90;;;;;;4923577;29;20029;-74
2023/03/30 09:15:32;;;;;;;5.28;2.08;;;14.20;99.90;;;;;;4915767;29;20389;-74
2023/03/30 09:18:04;;;;;;;8.05;2.35;;;14.20;99.90;;;;;;4921061;29;20064;-75
2023/03/30 09:20:34;;;;;;;5.90;2.22;;;14.20;99.90;;;;;;4915980;29;20079;-74
2023/03/30 09:23:01;;;;;;;11.27;3.05;;;14.20;99.90;;;;;;4923443;29;20474;-74
2023/03/30 09:25:27;;;;;;;6.88;2.42;;;14.10;99.90;;;;;;4916242;29;20028;-74
2023/03/30 09:28:17;;;;;;;7.80;2.30;;;14.10;99.90;;;;;;4912711;29;20377;-75
2023/03/30 09:30:48;;;;;;;12.65;2.80;;;14.10;99.90;;;;;;4912946;29;20123;-87
2023/03/30 09:33:42;;;;;;;11.80;2.83;;;14.10;99.90;;;;;;4920603;29;20028;-75
2023/03/30 09:36:13;;;;;;;9.95;2.15;;;14.10;99.90;;;;;;4911780;29;20040;-75
2023/03/30 09:38:40;;;;;;;10.40;2.22;;;14.10;99.90;;;;;;4903969;29;20111;-76
2023/03/30 09:41:41;;;;;;;6.82;2.50;;;14.00;99.90;;;;;;4911696;29;20040;-77
2023/03/30 09:44:17;;;;;;;7.30;2.47;;;13.90;99.90;;;;;;4875920;29;20501;-78
2023/03/30 09:46:43;;;;;;;6.40;2.40;;;13.80;99.90;;;;;;4915187;29;20032;-83
2023/03/30 09:49:15;;;;;;;7.07;2.10;;;13.90;99.90;;;;;;4916593;29;20075;-76
2023/03/30 09:52:02;;;;;;;6.03;2.38;;;13.80;99.90;;;;;;4899207;29;20035;-77
2023/03/30 09:54:35;;;;;;;5.72;1.75;;;13.80;99.90;;;;;;4905644;29;20108;-76
2023/03/30 09:57:01;;;;;;;7.00;2.35;;;14.00;99.90;;;;;;4909415;29;20028;-77
2023/03/30 09:59:33;;;;;;;3.95;1.85;;;14.00;99.90;;;;;;4900431;29;20055;-76
2023/03/30 10:02:09;;;;;;;3.70;2.22;;;14.00;99.90;;;;;;4916092;29;20044;-76
2023/03/30 10:04:59;;;;;;;6.85;2.40;;;14.10;99.90;;;;;;4911843;29;20032;-76
2023/03/30 10:07:27;;;;;;;5.90;2.40;;;14.10;99.90;;;;;;4898480;29;20036;-76
2023/03/30 10:09:54;;;;;;;10.38;2.70;;;14.10;99.90;;;;;;4915704;29;20553;-77
2023/03/30 10:12:22;;;;;;;9.60;2.50;;;14.20;99.90;;;;;;4916117;29;20474;-76
2023/03/30 10:14:54;;;;;;;8.30;2.35;;;14.20;99.90;;;;;;4915718;29;20039;-76
2023/03/30 10:17:23;;;;;;;8.55;2.13;;;14.20;99.90;;;;;;4915943;29;20032;-76
2023/03/30 10:19:52;;;;;;;6.32;2.20;;;14.20;99.90;;;;;;4911348;29;20033;-75
2023/03/30 10:22:21;;;;;;;8.40;1.98;;;14.20;99.90;;;;;;4911437;29;20028;-75
2023/03/30 10:24:55;;;;;;;7.30;2.33;;;14.30;99.90;;;;;;4911468;29;20033;-76
2023/03/30 10:27:32;;;;;;;5.78;2.38;;;14.50;99.90;;;;;;4911665;29;20452;-76
2023/03/30 10:30:08;;;;;;;5.25;1.73;;;14.70;99.90;;;;;;4895554;29;20474;-75
2023/03/30 10:32:35;;;;;;;6.15;2.10;;;14.80;99.90;;;;;;4896112;29;20032;-76
2023/03/30 10:35:08;;;;;;;4.45;1.70;;;14.90;99.90;;;;;;4910668;29;20032;-77
2023/03/30 10:37:38;;;;;;;5.68;1.90;;;15.10;99.90;;;;;;4899784;29;20063;-77
2023/03/30 10:40:14;;;;;;;7.63;1.98;;;15.20;99.90;;;;;;4923905;29;20025;-76
2023/03/30 10:42:40;;;;;;;10.48;2.00;;;15.30;99.90;;;;;;4903777;29;20541;-75
2023/03/30 10:45:13;;;;;;;5.80;2.00;;;15.50;99.90;;;;;;4911373;29;20029;-76
2023/03/30 10:47:53;;;;;;;7.82;2.67;;;15.40;99.90;;;;;;4915365;29;20100;-76
2023/03/30 10:50:34;;;;;;;6.93;1.88;;;15.30;99.90;;;;;;4906263;29;20040;-74
2023/03/30 10:53:33;;;;;;;7.25;2.10;;;15.40;99.90;;;;;;4910151;29;20047;-74
2023/03/30 10:56:28;;;;;;;8.90;2.10;;;15.30;99.90;;;;;;4900598;29;20032;-75
2023/03/30 10:59:10;;;;;;;5.63;2.30;;;15.30;99.90;;;;;;4899147;29;20051;-75
2023/03/30 11:01:55;;;;;;;;;;;15.30;99.90;;;;;;4911669;29;20029;-75
2023/03/30 11:04:35;;;;;;;4.55;1.90;;;15.40;99.90;;;;;;4903971;29;19907;-75
2023/03/30 11:07:05;;;;;;;7.05;1.92;;;15.40;99.90;;;;;;4900355;29;20029;-75
2023/03/30 11:09:38;;;;;;;6.50;1.88;;;15.40;99.90;;;;;;4909481;29;20044;-76
2023/03/30 11:12:15;;;;;;;8.90;2.20;;;15.30;99.90;;;;;;4911486;29;20540;-73
2023/03/30 11:14:54;;;;;;;7.72;2.15;;;15.30;99.90;;;;;;4906254;29;20172;-75
2023/03/30 11:17:32;;;;;;;7.28;2.28;;;15.30;99.90;;;;;;4895250;29;20071;-74
2023/03/30 11:20:05;;;;;;;9.60;2.42;;;15.40;99.90;;;;;;4879582;29;20037;-74
2023/03/30 11:23:06;;;;;;;8.25;2.22;;;15.50;99.90;;;;;;4895417;29;20036;-75
2023/03/30 11:25:38;;;;;;;3.47;2.10;;;15.60;99.90;;;;;;4837152;29;20038;-75
2023/03/30 11:28:21;;;;;;;6.60;1.95;;;15.60;99.90;;;;;;4878966;29;20044;-74
2023/03/30 11:30:51;;;;;;;6.35;2.25;;;15.70;99.90;;;;;;4876175;29;20049;-75
2023/03/30 11:33:48;;;;;;;5.18;2.13;;;15.90;99.90;;;;;;4892030;29;20033;-76
2023/03/30 11:36:20;;;;;;;4.80;2.65;;;15.90;99.90;;;;;;4867739;29;20096;-74
2023/03/30 11:39:08;;;;;;;7.65;2.63;;;15.80;99.90;;;;;;4899765;29;20104;-79
2023/03/30 11:42:00;;;;;;;5.75;1.70;;;15.80;99.90;;;;;;4883005;29;20394;-74
2023/03/30 11:44:26;;;;;;;6.00;2.20;;;15.70;99.90;;;;;;4883125;29;20033;-74
2023/03/30 11:47:15;;;;;;;5.65;2.15;;;15.60;99.90;;;;;;4882701;29;20028;-74
2023/03/30 11:50:26;;;;;;;8.52;2.13;;;15.60;99.90;;;;;;4882750;29;20040;-74
2023/03/30 11:53:25;;;;;;;6.45;2.28;;;15.80;99.90;;;;;;4859513;29;20030;-74
2023/03/30 11:56:25;;;;;;;9.27;2.85;;;15.60;99.90;;;;;;4845577;29;20033;-74
2023/03/30 11:59:05;;;;;;;6.90;1.95;;;15.80;99.90;;;;;;4826999;29;20070;-74
2023/03/30 12:01:57;;;;;;;7.78;1.88;;;16.00;99.90;;;;;;4859957;29;20034;-74
2023/03/30 12:04:51;;;;;;;6.93;2.20;;;16.20;99.90;;;;;;4858697;29;20042;-75
2023/03/30 12:07:30;;;;;;;3.75;2.08;;;16.10;99.90;;;;;;4843617;29;20045;-74
2023/03/30 12:10:01;;;;;;;9.88;3.28;;;16.00;99.90;;;;;;4843792;29;20045;-75
2023/03/30 12:12:35;;;;;;;7.85;2.65;;;16.00;99.90;;;;;;4859463;29;20033;-73
2023/03/30 12:15:42;;;;;;;10.48;2.40;;;16.20;99.90;;;;;;4843989;29;20029;-73
2023/03/30 12:18:16;;;;;;;6.07;2.33;;;16.30;99.90;;;;;;4834428;29;20336;-74
2023/03/30 12:21:14;;;;;;;7.25;2.47;;;16.10;99.90;;;;;;4852970;29;20111;-75
2023/03/30 12:23:55;;;;;;;4.57;2.20;;;15.90;99.90;;;;;;4876940;29;20459;-74
2023/03/30 12:26:23;;;;;;;5.22;2.05;;;15.60;99.90;;;;;;4881893;29;20026;-74
2023/03/30 12:28:58;;;;;;;7.60;2.47;;;15.40;99.90;;;;;;4898020;29;20040;-73
2023/03/30 12:31:46;;;;;;;6.20;2.40;;;15.30;99.90;;;;;;4878436;29;20033;-75
2023/03/30 12:34:12;;;;;;;5.78;1.77;;;15.10;99.90;;;;;;4872315;29;20184;-74
2023/03/30 12:36:51;;;;;;;4.97;1.92;;;15.00;99.90;;;;;;4889220;29;20502;-76
2023/03/30 12:39:47;;;;;;;5.40;2.40;;;14.90;99.90;;;;;;4879303;29;20033;-76
2023/03/30 12:42:33;;;;;;;6.63;1.90;;;14.80;99.90;;;;;;4872134;29;20040;-80
2023/03/30 12:45:19;;;;;;;6.78;2.00;;;14.80;99.90;;;;;;4879740;29;20060;-80
2023/03/30 12:48:06;;;;;;;8.25;1.85;;;14.80;99.90;;;;;;4898105;29;20056;-79
2023/03/30 12:50:49;;;;;;;5.70;1.88;;;14.80;99.90;;;;;;4898963;29;20036;-80
2023/03/30 12:53:36;;;;;;;5.90;2.28;;;15.40;99.90;;;;;;4868019;29;20033;-79
2023/03/30 12:56:04;;;;;;;6.50;2.10;;;16.00;99.90;;;;;;4885026;29;20028;-79
2023/03/30 12:58:49;;;;;;;5.93;2.40;;;15.90;99.90;;;;;;4879329;29;20036;-80
2023/03/30 13:01:32;;;;;;;7.43;2.05;;;15.60;99.90;;;;;;4880750;29;20120;-79
2023/03/30 13:04:06;;;;;;;6.60;2.15;;;15.40;99.90;;;;;;4882063;29;20025;-79
2023/03/30 13:06:40;;;;;;;3.53;1.65;;;15.20;99.90;;;;;;4879810;29;20039;-81
2023/03/30 13:09:14;;;;;;;5.30;1.80;;;15.60;99.90;;;;;;4865314;29;20041;-79